M I D A S
Marine Information and Data Acquisition System
Tripno 1760 of the Zeeleeuw from 2009-06-19 06:15:55 to 2009-06-19 16:13:22
Back to CruiseResearch ActivitiesStationsMapUnderway DataData graphs

EquipmentUnitsComments
TimeDGPSUTC
LatitudeDGPSDM.mWGS84
LongitudeDGPSDM.mWGS84
SpeedMeteo Stationm/sRelative wind speed
DirectionMeteo StationdegRelative wind direction
TemperatureMeteo Stationdeg CelciusAir temperature
PressureMeteo StationPaAtmospheric pressure
HumidityMeteo Station%Relative humidity
Missing or incorrect values are displayed as -999
Metereological data collected by the RV Zeeleeuw from 2009-06-19 06:19:04 to 2009-06-19 16:24:32
                                                                                    Next 1000 lines
Time Latitude Longitude Speed Direction Temperature Pressure Humidity
2009-06-19 06:19:15 51°13.662 2°55.954 4.9 52 15 101790 70
2009-06-19 06:19:19 51°13.663 2°55.952 4 28 15 101780 69
2009-06-19 06:19:24 51°13.664 2°55.948 3.2 52 15 101780 69
2009-06-19 06:19:29 51°13.665 2°55.943 4.8 28 15 101780 69
2009-06-19 06:19:36 51°13.667 2°55.935 4.6 53 15 101780 69
2009-06-19 06:19:41 51°13.669 2°55.928 4.7 19 15 101790 70
2009-06-19 06:19:47 51°13.671 2°55.92 4.9 57 15 101790 70
2009-06-19 06:19:52 51°13.674 2°55.913 4.4 19 15 101790 70
2009-06-19 06:19:58 51°13.676 2°55.905 5.4 54 15 101790 70
2009-06-19 06:20:03 51°13.678 2°55.898 4 20 15.1 101790 73
2009-06-19 06:20:08 51°13.68 2°55.891 4.6 37 15.1 101790 73
2009-06-19 06:20:13 51°13.681 2°55.885 4 21 15.2 101790 72
2009-06-19 06:20:18 51°13.683 2°55.878 4 51 15.2 101790 72
2009-06-19 06:20:23 51°13.684 2°55.871 4.6 23 15.2 101790 71
2009-06-19 06:20:28 51°13.686 2°55.864 9.2 34 15.2 101790 71
2009-06-19 06:20:33 51°13.687 2°55.857 7.1 22 15.2 101780 70
2009-06-19 06:20:38 51°13.688 2°55.85 5 55 15.2 101780 70
2009-06-19 06:20:43 51°13.689 2°55.844 3.9 20 15.3 101790 70
2009-06-19 06:20:48 51°13.69 2°55.837 6.1 57 15.3 101790 70
2009-06-19 06:20:53 51°13.69 2°55.83 7.5 22 15.3 101780 70
2009-06-19 06:20:58 51°13.691 2°55.824 5.9 57 15.3 101780 70
2009-06-19 06:21:03 51°13.691 2°55.817 7 20 15.3 101790 70
2009-06-19 06:21:08 51°13.691 2°55.81 3.7 57 15.3 101790 70
2009-06-19 06:21:13 51°13.691 2°55.803 3.8 21 15.3 101790 70
2009-06-19 06:21:18 51°13.691 2°55.796 5.6 58 15.3 101790 70
2009-06-19 06:21:23 51°13.691 2°55.79 4.9 24 15.2 101790 70
2009-06-19 06:21:28 51°13.691 2°55.783 6.5 53 15.2 101790 70
2009-06-19 06:21:33 51°13.69 2°55.777 5.7 20 15.2 101790 70
2009-06-19 06:21:38 51°13.69 2°55.771 4.7 58 15.2 101790 70
2009-06-19 06:21:43 51°13.69 2°55.766 4.7 27 15.2 101790 70
2009-06-19 06:21:48 51°13.69 2°55.761 2.4 55 15.2 101790 70
2009-06-19 06:21:53 51°13.69 2°55.756 4.9 19 15.2 101790 69
2009-06-19 06:21:58 51°13.69 2°55.751 3.8 51 15.2 101790 69
2009-06-19 06:22:03 51°13.69 2°55.749 4.3 26 15.2 101790 69
2009-06-19 06:22:08 51°13.69 2°55.749 5.2 57 15.2 101790 69
2009-06-19 06:22:12 51°13.691 2°55.75 5.5 21 15.2 101790 70
2009-06-19 06:22:17 51°13.692 2°55.753 4.4 58 15.2 101790 70
2009-06-19 06:22:22 51°13.694 2°55.755 3.1 258 15.2 101790 70
2009-06-19 06:22:27 51°13.696 2°55.758 3.3 309 15.2 101790 70
2009-06-19 06:22:32 51°13.698 2°55.76 3.2 20 15.2 101790 70
2009-06-19 06:22:36 51°13.699 2°55.762 4.2 305 15.2 101790 70
2009-06-19 06:22:41 51°13.701 2°55.764 3.7 257 15.2 101790 69
2009-06-19 06:22:46 51°13.702 2°55.765 3.8 308 15.2 101790 69
2009-06-19 06:22:51 51°13.703 2°55.765 3.2 270 15.2 101780 69
2009-06-19 06:22:56 51°13.703 2°55.766 3 304 15.2 101780 69
2009-06-19 06:23:00 51°13.702 2°55.766 4.4 265 15.2 101780 69
2009-06-19 06:23:05 51°13.701 2°55.765 3.6 301 15.2 101780 69
2009-06-19 06:23:10 51°13.699 2°55.765 3.9 21 15.2 101790 69
2009-06-19 06:23:15 51°13.698 2°55.765 4.4 304 15.2 101790 69
2009-06-19 06:23:20 51°13.697 2°55.764 4.1 259 15.2 101790 69
2009-06-19 06:23:25 51°13.696 2°55.764 4.1 301 15.2 101790 69
2009-06-19 06:23:31 51°13.696 2°55.765 4.7 20 15.2 101790 69
2009-06-19 06:23:36 51°13.697 2°55.765 6.5 309 15.2 101790 69
2009-06-19 06:23:42 51°13.7 2°55.766 7.7 21 15.2 101790 69
2009-06-19 06:23:47 51°13.703 2°55.765 6.9 306 15.2 101790 69
2009-06-19 06:23:52 51°13.706 2°55.764 7.1 21 15.2 101800 69
2009-06-19 06:23:57 51°13.71 2°55.761 6.9 306 15.2 101800 69
2009-06-19 06:24:01 51°13.713 2°55.759 6.7 28 15.2 101790 68
2009-06-19 06:24:06 51°13.718 2°55.755 9.8 306 15.2 101790 68
2009-06-19 06:24:11 51°13.723 2°55.75 8.6 20 15.2 101790 68
2009-06-19 06:24:16 51°13.729 2°55.744 6.2 310 15.2 101790 68
2009-06-19 06:24:20 51°13.734 2°55.739 6.6 331 15.2 101770 69
2009-06-19 06:24:26 51°13.742 2°55.73 8.7 329 15.2 101770 69
2009-06-19 06:24:30 51°13.748 2°55.723 8.8 334 15.2 101780 69
2009-06-19 06:24:35 51°13.756 2°55.714 6.9 303 15.2 101780 69
2009-06-19 06:24:40 51°13.764 2°55.705 10.3 332 15.2 101780 68
2009-06-19 06:24:45 51°13.772 2°55.696 8.1 304 15.2 101780 68
2009-06-19 06:24:49 51°13.779 2°55.689 8.6 316 15.2 101770 68
2009-06-19 06:24:54 51°13.788 2°55.679 8 333 15.2 101770 68
2009-06-19 06:24:59 51°13.797 2°55.669 10.6 322 15.2 101770 69
2009-06-19 06:25:04 51°13.807 2°55.659 10.3 324 15.2 101770 69
2009-06-19 06:25:09 51°13.817 2°55.649 8.9 333 15.1 101770 69
2009-06-19 06:25:15 51°13.829 2°55.637 9.3 307 15.1 101770 69
2009-06-19 06:25:19 51°13.837 2°55.63 7.2 322 15.1 101780 69
2009-06-19 06:25:24 51°13.848 2°55.62 11.6 309 15.1 101780 69
2009-06-19 06:25:30 51°13.861 2°55.609 10.7 27 15.1 101770 68
2009-06-19 06:25:35 51°13.873 2°55.599 13.5 310 15.1 101770 68
2009-06-19 06:25:39 51°13.882 2°55.592 13.5 24 15.1 101770 69
2009-06-19 06:25:44 51°13.894 2°55.583 12.7 307 15.1 101770 69
2009-06-19 06:25:49 51°13.906 2°55.574 9.9 316 15.1 101760 69
2009-06-19 06:25:55 51°13.92 2°55.563 10.4 304 15.1 101760 69
2009-06-19 06:25:59 51°13.93 2°55.556 11.5 26 15 101760 68
2009-06-19 06:26:04 51°13.943 2°55.547 7.8 327 15 101760 68
2009-06-19 06:26:09 51°13.955 2°55.537 6.5 320 15 101760 68
2009-06-19 06:26:15 51°13.971 2°55.527 8.4 308 15 101760 68
2009-06-19 06:26:19 51°13.981 2°55.519 7 324 15 101760 69
2009-06-19 06:26:24 51°13.995 2°55.509 7.2 309 15 101760 69
2009-06-19 06:26:29 51°14.008 2°55.5 9.9 24 15 101770 69
2009-06-19 06:26:34 51°14.021 2°55.49 8 308 15 101770 69
2009-06-19 06:26:39 51°14.035 2°55.481 7.4 324 14.9 101780 69
2009-06-19 06:26:44 51°14.048 2°55.471 9.4 322 14.9 101780 69
2009-06-19 06:26:48 51°14.059 2°55.463 7.9 26 14.9 101770 70
2009-06-19 06:26:54 51°14.076 2°55.452 10.2 310 14.9 101770 70
2009-06-19 06:26:59 51°14.091 2°55.443 15 23 14.9 101760 70
2009-06-19 06:27:04 51°14.105 2°55.433 12.8 304 14.9 101760 70
2009-06-19 06:27:09 51°14.118 2°55.423 14.9 27 14.9 101770 70
2009-06-19 06:27:15 51°14.135 2°55.41 12.7 303 14.9 101770 70
2009-06-19 06:27:19 51°14.146 2°55.401 14.4 22 14.9 101770 70
2009-06-19 06:27:24 51°14.159 2°55.389 13.8 316 14.9 101770 70
2009-06-19 06:27:29 51°14.172 2°55.377 14.9 316 14.9 101770 71
2009-06-19 06:27:35 51°14.187 2°55.361 12.7 302 14.9 101770 71
2009-06-19 06:27:39 51°14.197 2°55.349 12.6 315 14.9 101740 71
2009-06-19 06:27:44 51°14.209 2°55.334 13.9 305 14.9 101740 71
2009-06-19 06:27:48 51°14.219 2°55.322 15.6 319 14.9 101750 72
2009-06-19 06:27:54 51°14.233 2°55.303 13 304 14.9 101750 72
2009-06-19 06:27:59 51°14.245 2°55.288 13.5 321 14.9 101760 72
2009-06-19 06:28:04 51°14.257 2°55.272 14.4 303 14.9 101760 72
2009-06-19 06:28:09 51°14.268 2°55.256 15 320 14.9 101750 72
2009-06-19 06:28:15 51°14.282 2°55.235 15.9 304 14.9 101750 72
2009-06-19 06:28:19 51°14.29 2°55.221 16.1 321 14.9 101750 73
2009-06-19 06:28:24 51°14.301 2°55.204 14.1 306 14.9 101750 73
2009-06-19 06:28:29 51°14.312 2°55.187 15.2 321 14.8 101740 74
2009-06-19 06:28:35 51°14.325 2°55.166 14.2 304 14.8 101740 74
2009-06-19 06:28:40 51°14.336 2°55.149 13.4 319 14.8 101750 74
2009-06-19 06:28:44 51°14.345 2°55.136 14.5 306 14.8 101750 74
2009-06-19 06:28:49 51°14.357 2°55.121 14.1 320 14.8 101730 73
2009-06-19 06:28:54 51°14.369 2°55.107 15.5 307 14.8 101730 73
2009-06-19 06:28:59 51°14.381 2°55.094 13.9 318 14.8 101730 75
2009-06-19 06:29:04 51°14.393 2°55.079 16 308 14.8 101730 75
2009-06-19 06:29:08 51°14.403 2°55.068 14.3 318 14.8 101740 74
2009-06-19 06:29:14 51°14.418 2°55.05 13.7 307 14.8 101740 74
2009-06-19 06:29:19 51°14.43 2°55.036 14.4 321 14.8 101720 75
2009-06-19 06:29:24 51°14.441 2°55.021 15.4 306 14.8 101720 75
2009-06-19 06:29:29 51°14.453 2°55.005 16.3 319 14.8 101720 74
2009-06-19 06:29:35 51°14.467 2°54.987 16.5 306 14.8 101720 74
2009-06-19 06:29:39 51°14.476 2°54.975 16.6 316 14.8 101720 73
2009-06-19 06:29:44 51°14.488 2°54.96 15.6 306 14.8 101720 73
2009-06-19 06:29:49 51°14.5 2°54.945 15.7 317 14.7 101710 73
2009-06-19 06:29:55 51°14.514 2°54.927 14.5 306 14.7 101710 73
2009-06-19 06:29:59 51°14.524 2°54.916 13.4 316 14.8 101710 73
2009-06-19 06:30:04 51°14.536 2°54.903 14.8 307 14.8 101710 73
2009-06-19 06:30:08 51°14.547 2°54.893 13.9 27 14.7 101690 73
2009-06-19 06:30:14 51°14.562 2°54.879 14.2 304 14.7 101690 73
2009-06-19 06:30:19 51°14.576 2°54.868 15.5 25 14.7 101720 71
2009-06-19 06:30:24 51°14.589 2°54.855 12.9 306 14.7 101720 71
2009-06-19 06:30:29 51°14.602 2°54.844 16.3 317 14.6 101730 70
2009-06-19 06:30:35 51°14.618 2°54.829 14.5 307 14.6 101730 70
2009-06-19 06:30:39 51°14.628 2°54.819 16.4 315 14.6 101730 71
2009-06-19 06:30:44 51°14.641 2°54.807 16.1 306 14.6 101730 71
2009-06-19 06:30:49 51°14.653 2°54.793 15.1 320 14.7 101740 74
2009-06-19 06:30:54 51°14.665 2°54.779 15.3 305 14.7 101740 74
2009-06-19 06:30:59 51°14.676 2°54.763 15.9 321 14.7 101740 74
2009-06-19 06:31:04 51°14.687 2°54.747 16.1 306 14.7 101740 74
2009-06-19 06:31:08 51°14.695 2°54.733 15.5 322 14.7 101720 75
2009-06-19 06:31:14 51°14.706 2°54.71 15.7 306 14.7 101720 75
2009-06-19 06:31:19 51°14.715 2°54.691 13 325 14.7 101740 75
2009-06-19 06:31:24 51°14.722 2°54.672 15.4 326 14.7 101740 75
2009-06-19 06:31:29 51°14.73 2°54.652 13.5 327 14.7 101720 74
2009-06-19 06:31:35 51°14.738 2°54.628 15.7 328 14.7 101720 74
2009-06-19 06:31:39 51°14.743 2°54.611 15.2 328 14.6 101720 72
2009-06-19 06:31:44 51°14.748 2°54.589 13.8 328 14.6 101720 72
2009-06-19 06:31:49 51°14.754 2°54.568 15.6 329 14.6 101750 73
2009-06-19 06:31:55 51°14.759 2°54.541 16.1 332 14.6 101750 73
2009-06-19 06:31:59 51°14.763 2°54.523 16 330 14.6 101750 72
2009-06-19 06:32:04 51°14.766 2°54.5 17 330 14.6 101750 72
2009-06-19 06:32:09 51°14.77 2°54.478 14.6 330 14.6 101740 73
2009-06-19 06:32:15 51°14.773 2°54.45 15.3 330 14.6 101740 73
2009-06-19 06:32:19 51°14.776 2°54.432 14.1 331 14.6 101750 72
2009-06-19 06:32:24 51°14.779 2°54.409 17.9 333 14.6 101750 72
2009-06-19 06:32:28 51°14.781 2°54.39 15.7 333 14.6 101760 72
2009-06-19 06:32:34 51°14.784 2°54.362 14.9 332 14.6 101760 72
2009-06-19 06:32:39 51°14.786 2°54.339 13.6 334 14.6 101750 71
2009-06-19 06:32:44 51°14.789 2°54.315 16.1 335 14.6 101750 71
2009-06-19 06:32:49 51°14.792 2°54.292 17.1 332 14.6 101760 72
2009-06-19 06:32:55 51°14.796 2°54.264 14.2 333 14.6 101760 72
2009-06-19 06:32:59 51°14.798 2°54.246 16.1 333 14.6 101740 74
2009-06-19 06:33:04 51°14.801 2°54.222 15.8 333 14.6 101740 74
2009-06-19 06:33:09 51°14.805 2°54.2 15.7 330 14.6 101750 74
2009-06-19 06:33:15 51°14.809 2°54.172 17.5 330 14.6 101750 74
2009-06-19 06:33:20 51°14.812 2°54.149 16 330 14.6 101750 73
2009-06-19 06:33:24 51°14.815 2°54.131 15.8 329 14.6 101750 73
2009-06-19 06:33:29 51°14.819 2°54.108 15.1 331 14.6 101760 73
2009-06-19 06:33:34 51°14.823 2°54.085 14.6 331 14.6 101760 73
2009-06-19 06:33:39 51°14.827 2°54.061 16.4 332 14.5 101750 71
2009-06-19 06:33:44 51°14.831 2°54.038 16.5 329 14.5 101750 71
2009-06-19 06:33:48 51°14.834 2°54.02 14.5 332 14.5 101750 70
2009-06-19 06:33:54 51°14.839 2°53.992 14.4 331 14.5 101750 70
2009-06-19 06:33:59 51°14.843 2°53.969 16.1 330 14.5 101750 71
2009-06-19 06:34:04 51°14.848 2°53.946 15 329 14.5 101750 71
2009-06-19 06:34:09 51°14.852 2°53.924 16.4 330 14.5 101750 71
2009-06-19 06:34:15 51°14.857 2°53.896 14 329 14.5 101750 71
2009-06-19 06:34:19 51°14.86 2°53.878 13.9 328 14.5 101750 71
2009-06-19 06:34:24 51°14.865 2°53.855 15.3 330 14.5 101750 71
2009-06-19 06:34:29 51°14.869 2°53.832 13.8 332 14.5 101740 70
2009-06-19 06:34:35 51°14.875 2°53.805 15.4 332 14.5 101740 70
2009-06-19 06:34:39 51°14.878 2°53.787 13.9 332 14.5 101750 71
2009-06-19 06:34:44 51°14.883 2°53.763 13.8 332 14.5 101750 71
2009-06-19 06:34:50 51°14.888 2°53.737 14.3 333 14.5 101760 72
2009-06-19 06:34:55 51°14.893 2°53.714 16.7 332 14.5 101760 72
2009-06-19 06:34:59 51°14.897 2°53.697 16.4 332 14.6 101760 75
2009-06-19 06:35:04 51°14.901 2°53.674 17.4 332 14.6 101760 75
2009-06-19 06:35:09 51°14.906 2°53.652 16.5 331 14.5 101750 73
2009-06-19 06:35:15 51°14.912 2°53.625 14.8 332 14.5 101750 73
2009-06-19 06:35:19 51°14.916 2°53.608 16.9 333 14.5 101750 72
2009-06-19 06:35:24 51°14.92 2°53.585 16.5 332 14.5 101750 72
2009-06-19 06:35:29 51°14.925 2°53.562 16.2 332 14.5 101760 72
2009-06-19 06:35:35 51°14.93 2°53.535 16 332 14.5 101760 72
2009-06-19 06:35:40 51°14.935 2°53.513 16.4 331 14.5 101750 72
2009-06-19 06:35:44 51°14.939 2°53.494 15 331 14.5 101750 72
2009-06-19 06:35:49 51°14.943 2°53.472 15.8 333 14.5 101750 71
2009-06-19 06:35:54 51°14.948 2°53.449 14.8 332 14.5 101750 71
2009-06-19 06:35:59 51°14.953 2°53.427 15.3 331 14.5 101770 71
2009-06-19 06:36:04 51°14.958 2°53.405 17.7 331 14.5 101770 71
2009-06-19 06:36:08 51°14.962 2°53.387 16.2 331 14.5 101750 72
2009-06-19 06:36:14 51°14.968 2°53.361 16.3 331 14.5 101750 72
2009-06-19 06:36:19 51°14.973 2°53.339 13.7 331 14.5 101730 72
2009-06-19 06:36:24 51°14.978 2°53.317 16.5 330 14.5 101730 72
2009-06-19 06:36:29 51°14.983 2°53.295 15.1 330 14.5 101720 71
2009-06-19 06:36:35 51°14.989 2°53.268 14.4 331 14.5 101720 71
2009-06-19 06:36:39 51°14.992 2°53.25 13.8 330 14.5 101750 71
2009-06-19 06:36:44 51°14.997 2°53.228 14.4 330 14.5 101750 71
2009-06-19 06:36:49 51°15.002 2°53.206 12.8 331 14.5 101750 71
2009-06-19 06:36:55 51°15.007 2°53.179 14.1 330 14.5 101750 71
2009-06-19 06:36:59 51°15.011 2°53.16 15.8 331 14.5 101770 71
2009-06-19 06:37:04 51°15.016 2°53.138 17 333 14.5 101770 71
2009-06-19 06:37:09 51°15.021 2°53.115 14.2 333 14.5 101760 71
2009-06-19 06:37:15 51°15.027 2°53.088 17.3 331 14.5 101760 71
2009-06-19 06:37:19 51°15.031 2°53.071 15.4 331 14.5 101760 72
2009-06-19 06:37:24 51°15.036 2°53.048 16.5 332 14.5 101760 72
2009-06-19 06:37:28 51°15.04 2°53.03 14.1 332 14.5 101750 72
2009-06-19 06:37:35 51°15.047 2°52.999 15.4 332 14.5 101750 72
2009-06-19 06:37:39 51°15.051 2°52.981 17.2 332 14.4 101750 71
2009-06-19 06:37:44 51°15.056 2°52.958 14.5 330 14.4 101750 71
2009-06-19 06:37:49 51°15.061 2°52.936 16.3 331 14.4 101750 70
2009-06-19 06:37:55 51°15.066 2°52.908 13.9 332 14.4 101750 70
2009-06-19 06:38:00 51°15.071 2°52.886 14.5 332 14.4 101760 71
2009-06-19 06:38:04 51°15.075 2°52.868 13.6 332 14.4 101760 71
2009-06-19 06:38:09 51°15.08 2°52.845 17.5 333 14.4 101760 71
2009-06-19 06:38:14 51°15.084 2°52.823 13.8 332 14.4 101760 71
2009-06-19 06:38:19 51°15.089 2°52.801 15.4 331 14.4 101760 71
2009-06-19 06:38:24 51°15.093 2°52.779 12.4 333 14.4 101760 71
2009-06-19 06:38:28 51°15.097 2°52.761 15.7 332 14.4 101750 70
2009-06-19 06:38:34 51°15.102 2°52.734 13.4 331 14.4 101750 70
2009-06-19 06:38:39 51°15.107 2°52.712 14.3 334 14.4 101750 70
2009-06-19 06:38:44 51°15.111 2°52.689 13.9 333 14.4 101750 70
2009-06-19 06:38:49 51°15.116 2°52.667 15.3 337 14.4 101760 71
2009-06-19 06:38:55 51°15.122 2°52.64 15.4 333 14.4 101760 71
2009-06-19 06:38:59 51°15.125 2°52.622 15 332 14.4 101760 71
2009-06-19 06:39:04 51°15.13 2°52.6 14.6 335 14.4 101760 71
2009-06-19 06:39:09 51°15.135 2°52.577 15.9 331 14.4 101760 73
2009-06-19 06:39:15 51°15.141 2°52.55 16.1 333 14.4 101760 73
2009-06-19 06:39:19 51°15.145 2°52.532 16.1 333 14.4 101760 73
2009-06-19 06:39:24 51°15.15 2°52.51 13.7 333 14.4 101760 73
2009-06-19 06:39:29 51°15.154 2°52.487 14.2 333 14.5 101750 74
2009-06-19 06:39:35 51°15.16 2°52.46 14.7 333 14.5 101750 74
2009-06-19 06:39:39 51°15.164 2°52.441 12.7 334 14.5 101760 73
2009-06-19 06:39:44 51°15.169 2°52.419 17 332 14.5 101760 73
2009-06-19 06:39:48 51°15.173 2°52.401 13.2 333 14.5 101760 73
2009-06-19 06:39:55 51°15.18 2°52.37 14.4 330 14.5 101760 73
2009-06-19 06:40:00 51°15.185 2°52.348 13.7 331 14.5 101760 74
2009-06-19 06:40:04 51°15.189 2°52.33 13.6 330 14.5 101760 74
2009-06-19 06:40:09 51°15.194 2°52.308 13.7 330 14.5 101750 74
2009-06-19 06:40:15 51°15.2 2°52.281 13 330 14.5 101750 74
2009-06-19 06:40:19 51°15.204 2°52.263 12.6 330 14.5 101760 72
2009-06-19 06:40:24 51°15.209 2°52.241 13.4 330 14.5 101760 72
2009-06-19 06:40:29 51°15.213 2°52.218 13.9 329 14.4 101760 72
2009-06-19 06:40:35 51°15.219 2°52.191 13.3 330 14.4 101760 72
2009-06-19 06:40:39 51°15.223 2°52.173 14.4 331 14.4 101760 72
2009-06-19 06:40:44 51°15.228 2°52.151 13.8 330 14.4 101760 72
2009-06-19 06:40:49 51°15.233 2°52.129 13.9 329 14.5 101760 73
2009-06-19 06:40:55 51°15.239 2°52.103 14.1 329 14.5 101760 73
2009-06-19 06:40:59 51°15.243 2°52.085 16.8 332 14.5 101730 73
2009-06-19 06:41:04 51°15.248 2°52.062 15.1 331 14.5 101730 73
2009-06-19 06:41:09 51°15.252 2°52.04 14.1 332 14.5 101770 74
2009-06-19 06:41:15 51°15.258 2°52.013 15.1 331 14.5 101770 74
2009-06-19 06:41:19 51°15.262 2°51.995 15 331 14.5 101740 74
2009-06-19 06:41:24 51°15.267 2°51.972 16.5 332 14.5 101740 74
2009-06-19 06:41:28 51°15.271 2°51.954 14.5 332 14.5 101760 74
2009-06-19 06:41:34 51°15.277 2°51.927 14.6 279 14.5 101760 74
2009-06-19 06:41:39 51°15.282 2°51.905 15.4 333 14.5 101760 73
2009-06-19 06:41:44 51°15.287 2°51.882 16.4 332 14.5 101760 73
2009-06-19 06:41:49 51°15.292 2°51.86 15.9 332 14.5 101750 73
2009-06-19 06:41:55 51°15.298 2°51.833 15.6 331 14.5 101750 73
2009-06-19 06:41:59 51°15.303 2°51.815 15.4 333 14.5 101750 72
2009-06-19 06:42:04 51°15.307 2°51.793 15.9 332 14.5 101750 72
2009-06-19 06:42:09 51°15.312 2°51.771 16.3 329 14.4 101750 71
2009-06-19 06:42:15 51°15.318 2°51.745 15.4 332 14.4 101750 71
2009-06-19 06:42:19 51°15.323 2°51.728 14.8 333 14.4 101760 72
2009-06-19 06:42:24 51°15.328 2°51.705 13.1 330 14.4 101760 72
2009-06-19 06:42:28 51°15.331 2°51.688 15.7 331 14.4 101750 72
2009-06-19 06:42:34 51°15.338 2°51.661 13.7 331 14.4 101750 72
2009-06-19 06:42:39 51°15.342 2°51.639 13.9 333 14.5 101750 73
2009-06-19 06:42:44 51°15.348 2°51.617 16 331 14.5 101750 73
2009-06-19 06:42:49 51°15.352 2°51.594 15.7 333 14.5 101770 74
2009-06-19 06:42:55 51°15.359 2°51.568 13.5 331 14.5 101770 74
2009-06-19 06:42:59 51°15.363 2°51.55 13.7 332 14.5 101760 74
2009-06-19 06:43:04 51°15.367 2°51.528 15.5 332 14.5 101760 74
2009-06-19 06:43:09 51°15.372 2°51.506 16.6 331 14.4 101760 72
2009-06-19 06:43:15 51°15.377 2°51.479 14.1 332 14.4 101760 72
2009-06-19 06:43:19 51°15.381 2°51.461 14.1 332 14.4 101760 73
2009-06-19 06:43:24 51°15.385 2°51.438 15.8 330 14.4 101760 73
2009-06-19 06:43:29 51°15.389 2°51.415 14.2 329 14.4 101760 73
2009-06-19 06:43:35 51°15.393 2°51.388 15.4 282 14.4 101760 73
2009-06-19 06:43:39 51°15.396 2°51.37 16.3 330 14.4 101760 72
2009-06-19 06:43:44 51°15.399 2°51.347 14.6 330 14.4 101760 72
2009-06-19 06:43:48 51°15.402 2°51.329 15.2 330 14.4 101760 74
2009-06-19 06:43:55 51°15.407 2°51.297 14.6 331 14.4 101760 74
2009-06-19 06:43:59 51°15.409 2°51.279 13.7 332 14.4 101770 73
2009-06-19 06:44:04 51°15.412 2°51.257 14 329 14.4 101770 73
2009-06-19 06:44:09 51°15.415 2°51.235 15.1 331 14.4 101760 74
2009-06-19 06:44:15 51°15.419 2°51.208 14.6 329 14.4 101760 74
2009-06-19 06:44:19 51°15.421 2°51.191 14.9 329 14.4 101760 74
2009-06-19 06:44:24 51°15.425 2°51.168 15.8 331 14.4 101760 74
2009-06-19 06:44:29 51°15.428 2°51.146 15.1 333 14.4 101770 74
2009-06-19 06:44:34 51°15.432 2°51.123 14.1 332 14.4 101770 74
2009-06-19 06:44:39 51°15.435 2°51.101 15 333 14.4 101770 73
2009-06-19 06:44:44 51°15.438 2°51.078 15.6 332 14.4 101770 73
2009-06-19 06:44:48 51°15.441 2°51.06 14.9 334 14.5 101760 74
2009-06-19 06:44:54 51°15.445 2°51.032 15.4 333 14.5 101760 74
2009-06-19 06:44:59 51°15.448 2°51.009 17.4 333 14.5 101750 74
2009-06-19 06:45:04 51°15.451 2°50.987 17 334 14.5 101750 74
2009-06-19 06:45:09 51°15.454 2°50.964 16.7 333 14.4 101770 73
2009-06-19 06:45:15 51°15.458 2°50.936 14.6 334 14.4 101770 73
2009-06-19 06:45:19 51°15.46 2°50.918 15.6 334 14.4 101760 72
2009-06-19 06:45:24 51°15.463 2°50.895 15.8 333 14.4 101760 72
2009-06-19 06:45:29 51°15.466 2°50.872 16 333 14.4 101760 72
2009-06-19 06:45:35 51°15.47 2°50.845 17 281 14.4 101760 72
2009-06-19 06:45:39 51°15.473 2°50.827 14.7 332 14.4 101750 71
2009-06-19 06:45:44 51°15.476 2°50.804 14.5 335 14.4 101750 71
2009-06-19 06:45:48 51°15.478 2°50.786 15.3 334 14.4 101750 71
2009-06-19 06:45:54 51°15.482 2°50.758 14.4 333 14.4 101750 71
2009-06-19 06:45:59 51°15.485 2°50.735 14.2 331 14.4 101780 72
2009-06-19 06:46:04 51°15.488 2°50.712 16.9 332 14.4 101780 72
2009-06-19 06:46:09 51°15.491 2°50.69 15.2 333 14.4 101760 72
2009-06-19 06:46:15 51°15.495 2°50.662 13.5 332 14.4 101760 72
2009-06-19 06:46:19 51°15.497 2°50.643 15.5 329 14.4 101770 73
2009-06-19 06:46:24 51°15.5 2°50.62 14.1 333 14.4 101770 73
2009-06-19 06:46:29 51°15.503 2°50.597 14.8 331 14.4 101750 71
2009-06-19 06:46:35 51°15.508 2°50.57 16.5 332 14.4 101750 71
2009-06-19 06:46:40 51°15.511 2°50.547 17.6 331 14.4 101760 72
2009-06-19 06:46:44 51°15.514 2°50.529 14.6 332 14.4 101760 72
2009-06-19 06:46:49 51°15.518 2°50.506 15 335 14.4 101760 73
2009-06-19 06:46:55 51°15.522 2°50.479 15.8 332 14.4 101760 73
2009-06-19 06:46:59 51°15.525 2°50.461 17 333 14.4 101750 73
2009-06-19 06:47:04 51°15.529 2°50.438 16.7 333 14.4 101750 73
2009-06-19 06:47:08 51°15.531 2°50.42 16.1 333 14.4 101770 72
2009-06-19 06:47:14 51°15.536 2°50.392 14.9 333 14.4 101770 72
2009-06-19 06:47:20 51°15.539 2°50.365 16.3 333 14.4 101770 72
2009-06-19 06:47:24 51°15.542 2°50.347 13.9 334 14.4 101770 72
2009-06-19 06:47:29 51°15.546 2°50.324 16.9 334 14.4 101760 71
2009-06-19 06:47:35 51°15.55 2°50.297 15 279 14.4 101760 71
2009-06-19 06:47:39 51°15.552 2°50.278 17.2 336 14.4 101750 71
2009-06-19 06:47:44 51°15.555 2°50.255 15.7 336 14.4 101750 71
2009-06-19 06:47:49 51°15.559 2°50.232 13.6 337 14.3 101780 71
2009-06-19 06:47:55 51°15.562 2°50.205 14.3 337 14.3 101780 71
2009-06-19 06:47:59 51°15.564 2°50.187 15.8 337 14.4 101760 71
2009-06-19 06:48:04 51°15.568 2°50.165 14.8 338 14.4 101760 71
2009-06-19 06:48:08 51°15.57 2°50.147 12.3 338 14.4 101770 71
2009-06-19 06:48:14 51°15.574 2°50.12 14.3 336 14.4 101770 71
2009-06-19 06:48:19 51°15.577 2°50.097 13.1 335 14.3 101770 70
2009-06-19 06:48:24 51°15.58 2°50.075 14.1 335 14.3 101770 70
2009-06-19 06:48:29 51°15.583 2°50.052 15.8 335 14.3 101770 70
2009-06-19 06:48:35 51°15.587 2°50.025 14.4 335 14.3 101770 70
2009-06-19 06:48:39 51°15.59 2°50.006 15.1 333 14.3 101780 70
2009-06-19 06:48:44 51°15.593 2°49.984 15.8 336 14.3 101780 70
2009-06-19 06:48:49 51°15.596 2°49.961 15.8 337 14.4 101780 72
2009-06-19 06:48:55 51°15.599 2°49.934 13.9 333 14.4 101780 72
2009-06-19 06:49:00 51°15.603 2°49.911 14.6 331 14.4 101770 72
2009-06-19 06:49:04 51°15.605 2°49.894 15.5 330 14.4 101770 72
2009-06-19 06:49:09 51°15.608 2°49.871 15.3 332 14.4 101780 72
2009-06-19 06:49:15 51°15.612 2°49.844 15.5 333 14.4 101780 72
2009-06-19 06:49:19 51°15.614 2°49.826 13.2 332 14.4 101760 72
2009-06-19 06:49:24 51°15.618 2°49.803 14.3 333 14.4 101760 72
2009-06-19 06:49:28 51°15.62 2°49.785 15.8 333 14.4 101770 73
2009-06-19 06:49:34 51°15.624 2°49.758 15.7 283 14.4 101770 73
2009-06-19 06:49:40 51°15.628 2°49.731 16.2 332 14.4 101770 74
2009-06-19 06:49:44 51°15.63 2°49.713 14 333 14.4 101770 74
2009-06-19 06:49:49 51°15.633 2°49.691 15.6 334 14.4 101780 73
2009-06-19 06:49:55 51°15.637 2°49.664 14.1 333 14.4 101780 73
2009-06-19 06:49:59 51°15.64 2°49.646 15.7 334 14.4 101750 71
2009-06-19 06:50:04 51°15.643 2°49.623 16 332 14.4 101750 71
2009-06-19 06:50:09 51°15.647 2°49.602 15.2 330 14.4 101790 71
2009-06-19 06:50:15 51°15.651 2°49.575 13.2 331 14.4 101790 71
2009-06-19 06:50:19 51°15.654 2°49.558 13.8 330 14.4 101770 72
2009-06-19 06:50:24 51°15.657 2°49.535 14.4 331 14.4 101770 72
2009-06-19 06:50:29 51°15.66 2°49.513 13.9 332 14.4 101770 72
2009-06-19 06:50:35 51°15.664 2°49.486 14.6 334 14.4 101770 72
2009-06-19 06:50:39 51°15.666 2°49.468 12.2 333 14.4 101770 71
2009-06-19 06:50:44 51°15.669 2°49.445 14.4 333 14.4 101770 71
2009-06-19 06:50:49 51°15.672 2°49.423 14.7 333 14.4 101770 72
2009-06-19 06:50:55 51°15.676 2°49.396 13.4 336 14.4 101770 72
2009-06-19 06:50:59 51°15.678 2°49.378 14.6 331 14.4 101780 73
2009-06-19 06:51:04 51°15.682 2°49.355 13.6 334 14.4 101780 73
2009-06-19 06:51:09 51°15.685 2°49.333 14.3 334 14.5 101780 74
2009-06-19 06:51:15 51°15.689 2°49.306 15.6 334 14.5 101780 74
2009-06-19 06:51:19 51°15.692 2°49.287 13.4 336 14.5 101760 73
2009-06-19 06:51:24 51°15.695 2°49.265 12.9 336 14.5 101760 73
2009-06-19 06:51:28 51°15.698 2°49.247 14.6 335 14.5 101770 74
2009-06-19 06:51:34 51°15.701 2°49.22 13.4 282 14.5 101770 74
2009-06-19 06:51:40 51°15.705 2°49.193 16 335 14.5 101770 74
2009-06-19 06:51:44 51°15.707 2°49.175 15.8 332 14.5 101770 74
2009-06-19 06:51:49 51°15.71 2°49.153 14.8 334 14.5 101770 73
2009-06-19 06:51:54 51°15.713 2°49.13 14.5 335 14.5 101770 73
2009-06-19 06:51:59 51°15.716 2°49.107 15.3 335 14.5 101790 74
2009-06-19 06:52:04 51°15.719 2°49.085 13.4 335 14.5 101790 74
2009-06-19 06:52:09 51°15.722 2°49.063 15.1 334 14.5 101760 73
2009-06-19 06:52:15 51°15.725 2°49.036 13.2 336 14.5 101760 73
2009-06-19 06:52:19 51°15.728 2°49.018 16.7 335 14.4 101770 71
2009-06-19 06:52:24 51°15.731 2°48.995 14.5 335 14.4 101770 71
2009-06-19 06:52:29 51°15.734 2°48.973 16.5 334 14.4 101770 71
2009-06-19 06:52:35 51°15.738 2°48.946 15.5 333 14.4 101770 71
2009-06-19 06:52:39 51°15.74 2°48.928 15.9 334 14.4 101780 71
2009-06-19 06:52:44 51°15.743 2°48.906 13.9 334 14.4 101780 71
2009-06-19 06:52:50 51°15.746 2°48.879 14.4 337 14.4 101760 72
2009-06-19 06:52:55 51°15.749 2°48.856 13.8 335 14.4 101760 72
2009-06-19 06:52:59 51°15.752 2°48.839 13.9 334 14.4 101760 72
2009-06-19 06:53:04 51°15.755 2°48.816 13.7 336 14.4 101760 72
2009-06-19 06:53:09 51°15.758 2°48.794 13.7 336 14.4 101770 72
2009-06-19 06:53:15 51°15.762 2°48.767 14.2 336 14.4 101770 72
2009-06-19 06:53:20 51°15.765 2°48.744 13.2 336 14.4 101770 71
2009-06-19 06:53:24 51°15.767 2°48.727 14.3 336 14.4 101770 71
2009-06-19 06:53:29 51°15.77 2°48.705 13.4 336 14.4 101780 71
2009-06-19 06:53:35 51°15.773 2°48.679 15.3 277 14.4 101780 71
2009-06-19 06:53:39 51°15.775 2°48.661 15.8 333 14.4 101770 71
2009-06-19 06:53:44 51°15.778 2°48.639 13.4 336 14.4 101770 71
2009-06-19 06:53:48 51°15.781 2°48.621 16 336 14.4 101780 71
2009-06-19 06:53:54 51°15.785 2°48.595 14.5 332 14.4 101780 71
2009-06-19 06:54:00 51°15.789 2°48.568 14.6 332 14.4 101770 72
2009-06-19 06:54:04 51°15.791 2°48.55 16 333 14.4 101770 72
2009-06-19 06:54:09 51°15.794 2°48.528 15.7 332 14.4 101770 73
2009-06-19 06:54:15 51°15.798 2°48.501 13.3 330 14.4 101770 73
2009-06-19 06:54:19 51°15.801 2°48.484 13.4 329 14.4 101780 74
2009-06-19 06:54:24 51°15.804 2°48.461 15.6 332 14.4 101780 74
2009-06-19 06:54:29 51°15.807 2°48.439 13.7 334 14.4 101770 74
2009-06-19 06:54:35 51°15.811 2°48.413 15.3 331 14.4 101770 74
2009-06-19 06:54:39 51°15.814 2°48.395 14.6 330 14.4 101760 74
2009-06-19 06:54:44 51°15.817 2°48.373 15 330 14.4 101760 74
2009-06-19 06:54:49 51°15.821 2°48.35 15.6 329 14.4 101770 74
2009-06-19 06:54:55 51°15.825 2°48.324 14.3 331 14.4 101770 74
2009-06-19 06:54:59 51°15.828 2°48.306 14.5 331 14.4 101750 73
2009-06-19 06:55:04 51°15.831 2°48.283 14.7 330 14.4 101750 73
2009-06-19 06:55:09 51°15.835 2°48.26 16.5 330 14.4 101740 73
2009-06-19 06:55:15 51°15.839 2°48.233 15.5 332 14.4 101740 73
2009-06-19 06:55:19 51°15.842 2°48.215 15.6 331 14.4 101760 73
2009-06-19 06:55:24 51°15.845 2°48.192 15 331 14.4 101760 73
2009-06-19 06:55:29 51°15.849 2°48.17 15.2 334 14.4 101760 72
2009-06-19 06:55:35 51°15.853 2°48.143 13.4 334 14.4 101760 72
2009-06-19 06:55:39 51°15.856 2°48.125 13.1 334 14.4 101770 71
2009-06-19 06:55:44 51°15.859 2°48.102 14.3 333 14.4 101770 71
2009-06-19 06:55:48 51°15.861 2°48.083 13.9 333 14.4 101770 72
2009-06-19 06:55:55 51°15.866 2°48.051 15.5 334 14.4 101770 72
2009-06-19 06:55:59 51°15.869 2°48.033 16.9 331 14.4 101770 73
2009-06-19 06:56:04 51°15.872 2°48.01 14.3 332 14.4 101770 73
2009-06-19 06:56:09 51°15.876 2°47.988 13.9 332 14.4 101770 73
2009-06-19 06:56:14 51°15.879 2°47.965 14.7 334 14.4 101770 73
2009-06-19 06:56:20 51°15.884 2°47.938 15 334 14.4 101770 74
2009-06-19 06:56:24 51°15.886 2°47.92 15.9 335 14.4 101770 74
2009-06-19 06:56:29 51°15.89 2°47.898 15.2 334 14.4 101770 74
2009-06-19 06:56:35 51°15.894 2°47.87 13.4 333 14.4 101770 74
2009-06-19 06:56:39 51°15.897 2°47.852 14 335 14.4 101780 73
2009-06-19 06:56:44 51°15.9 2°47.829 15.4 335 14.4 101780 73
2009-06-19 06:56:49 51°15.903 2°47.807 13.8 334 14.4 101780 73
2009-06-19 06:56:55 51°15.907 2°47.779 14.3 333 14.4 101780 73
2009-06-19 06:56:59 51°15.909 2°47.762 12.6 332 14.4 101780 73
2009-06-19 06:57:04 51°15.913 2°47.739 14.5 333 14.4 101780 73
2009-06-19 06:57:10 51°15.917 2°47.712 14.3 333 14.4 101770 73
2009-06-19 06:57:15 51°15.92 2°47.69 13.5 334 14.4 101770 73
2009-06-19 06:57:19 51°15.922 2°47.673 13.6 333 14.4 101770 73
2009-06-19 06:57:24 51°15.926 2°47.65 14.4 334 14.4 101770 73
2009-06-19 06:57:29 51°15.929 2°47.628 14.9 333 14.5 101760 74
2009-06-19 06:57:35 51°15.933 2°47.601 13.5 282 14.5 101760 74
2009-06-19 06:57:39 51°15.935 2°47.583 14.8 333 14.5 101760 74
2009-06-19 06:57:44 51°15.939 2°47.561 15.3 332 14.5 101760 74
2009-06-19 06:57:49 51°15.942 2°47.539 14.5 330 14.5 101770 75
2009-06-19 06:57:55 51°15.945 2°47.512 14 332 14.5 101770 75
2009-06-19 06:58:00 51°15.949 2°47.49 13.5 331 14.5 101780 75
2009-06-19 06:58:04 51°15.951 2°47.472 16.9 332 14.5 101780 75
2009-06-19 06:58:09 51°15.955 2°47.45 14.9 332 14.4 101760 74
2009-06-19 06:58:15 51°15.958 2°47.424 17.7 332 14.4 101760 74
2009-06-19 06:58:20 51°15.961 2°47.402 15.1 333 14.5 101770 74
2009-06-19 06:58:24 51°15.964 2°47.385 17.6 332 14.5 101770 74
2009-06-19 06:58:29 51°15.968 2°47.363 17.9 331 14.4 101760 73
2009-06-19 06:58:35 51°15.972 2°47.336 14.9 332 14.4 101760 73
2009-06-19 06:58:40 51°15.976 2°47.314 16.8 332 14.4 101750 72
2009-06-19 06:58:44 51°15.978 2°47.296 16.8 331 14.4 101750 72
2009-06-19 06:58:49 51°15.982 2°47.274 16.7 332 14.4 101760 71
2009-06-19 06:58:55 51°15.986 2°47.248 13.8 333 14.4 101760 71
2009-06-19 06:58:59 51°15.989 2°47.23 16.1 334 14.4 101760 71
2009-06-19 06:59:04 51°15.993 2°47.208 13.8 335 14.4 101760 71
2009-06-19 06:59:09 51°15.996 2°47.186 16.5 333 14.4 101770 71
2009-06-19 06:59:15 51°16.001 2°47.159 13.6 332 14.4 101770 71
2009-06-19 06:59:19 51°16.004 2°47.142 15.6 334 14.4 101750 72
2009-06-19 06:59:24 51°16.007 2°47.12 14 333 14.4 101750 72
2009-06-19 06:59:29 51°16.011 2°47.098 13.9 331 14.4 101770 73
2009-06-19 06:59:35 51°16.016 2°47.071 14.4 281 14.4 101770 73
2009-06-19 06:59:39 51°16.019 2°47.054 15.9 331 14.4 101760 73
2009-06-19 06:59:44 51°16.023 2°47.031 15.9 332 14.4 101760 73
2009-06-19 06:59:49 51°16.028 2°47.009 15.7 331 14.4 101780 72
2009-06-19 06:59:55 51°16.033 2°46.983 15.8 332 14.4 101780 72
2009-06-19 07:00:00 51°16.038 2°46.96 14.3 332 14.4 101770 72
2009-06-19 07:00:04 51°16.041 2°46.942 15.4 332 14.4 101770 72
2009-06-19 07:00:09 51°16.046 2°46.921 13.5 333 14.4 101770 72
2009-06-19 07:00:15 51°16.051 2°46.894 12.9 333 14.4 101770 72
2009-06-19 07:00:19 51°16.054 2°46.876 13 333 14.4 101750 71
2009-06-19 07:00:24 51°16.059 2°46.854 14.1 334 14.4 101750 71
2009-06-19 07:00:28 51°16.062 2°46.836 13 332 14.4 101750 72
2009-06-19 07:00:34 51°16.067 2°46.809 14.6 333 14.4 101750 72
2009-06-19 07:00:40 51°16.073 2°46.783 15.2 332 14.4 101780 73
2009-06-19 07:00:44 51°16.076 2°46.765 15.7 333 14.4 101780 73
2009-06-19 07:00:49 51°16.08 2°46.743 13.9 333 14.5 101770 74
2009-06-19 07:00:55 51°16.086 2°46.717 13.3 334 14.5 101770 74
2009-06-19 07:01:00 51°16.09 2°46.695 16 333 14.5 101780 76
2009-06-19 07:01:04 51°16.094 2°46.677 13.4 333 14.5 101780 76
2009-06-19 07:01:09 51°16.098 2°46.656 17 332 14.5 101770 76
2009-06-19 07:01:15 51°16.103 2°46.629 17.7 331 14.5 101770 76
2009-06-19 07:01:19 51°16.107 2°46.612 17.6 332 14.5 101770 74
2009-06-19 07:01:24 51°16.111 2°46.591 15.5 332 14.5 101770 74
2009-06-19 07:01:28 51°16.114 2°46.574 16.4 332 14.4 101770 74
2009-06-19 07:01:35 51°16.119 2°46.543 14.7 332 14.4 101770 74
2009-06-19 07:01:39 51°16.122 2°46.526 14.6 332 14.4 101770 72
2009-06-19 07:01:44 51°16.126 2°46.504 14.9 331 14.4 101770 72
2009-06-19 07:01:49 51°16.13 2°46.482 16.4 331 14.4 101770 72
2009-06-19 07:01:55 51°16.135 2°46.456 13.8 332 14.4 101770 72
2009-06-19 07:01:59 51°16.138 2°46.439 13.6 332 14.4 101770 71
2009-06-19 07:02:04 51°16.142 2°46.417 13.3 331 14.4 101770 71
2009-06-19 07:02:09 51°16.146 2°46.395 14.5 332 14.4 101750 71
2009-06-19 07:02:15 51°16.151 2°46.368 14.5 333 14.4 101750 71
2009-06-19 07:02:19 51°16.154 2°46.351 14.9 331 14.4 101760 71
2009-06-19 07:02:24 51°16.157 2°46.329 16 331 14.4 101760 71
2009-06-19 07:02:29 51°16.162 2°46.307 15.9 330 14.4 101760 72
2009-06-19 07:02:35 51°16.166 2°46.281 12 330 14.4 101760 72
2009-06-19 07:02:40 51°16.17 2°46.26 13.1 329 14.4 101780 72
2009-06-19 07:02:44 51°16.174 2°46.243 16.2 329 14.4 101780 72
2009-06-19 07:02:49 51°16.179 2°46.222 15.2 331 14.3 101780 72
2009-06-19 07:02:55 51°16.185 2°46.197 14.8 330 14.3 101780 72
2009-06-19 07:03:00 51°16.19 2°46.175 13.6 330 14.3 101780 72
2009-06-19 07:03:04 51°16.195 2°46.158 13.1 329 14.3 101780 72
2009-06-19 07:03:09 51°16.2 2°46.137 15.3 330 14.3 101780 72
2009-06-19 07:03:15 51°16.207 2°46.112 15.4 331 14.3 101780 72
2009-06-19 07:03:19 51°16.212 2°46.095 16.9 330 14.3 101780 73
2009-06-19 07:03:24 51°16.218 2°46.074 14.1 328 14.3 101780 73
2009-06-19 07:03:29 51°16.224 2°46.053 13.9 328 14.4 101790 74
2009-06-19 07:03:35 51°16.232 2°46.028 13 283 14.4 101790 74
2009-06-19 07:03:39 51°16.237 2°46.012 14.7 329 14.4 101770 75
2009-06-19 07:03:44 51°16.243 2°45.991 13 328 14.4 101770 75
2009-06-19 07:03:49 51°16.249 2°45.97 15.4 327 14.3 101760 73
2009-06-19 07:03:55 51°16.257 2°45.946 13.6 328 14.3 101760 73
2009-06-19 07:03:59 51°16.262 2°45.929 12.6 327 14.3 101760 72
2009-06-19 07:04:04 51°16.269 2°45.909 14.6 325 14.3 101760 72
2009-06-19 07:04:09 51°16.275 2°45.888 12.9 326 14.3 101780 72
2009-06-19 07:04:15 51°16.283 2°45.863 15.1 327 14.3 101780 72
2009-06-19 07:04:20 51°16.289 2°45.843 13.6 327 14.3 101770 74
2009-06-19 07:04:24 51°16.294 2°45.826 16.5 325 14.3 101770 74
2009-06-19 07:04:29 51°16.301 2°45.805 13.3 328 14.4 101780 76
2009-06-19 07:04:35 51°16.308 2°45.781 13.5 327 14.4 101780 76
2009-06-19 07:04:39 51°16.313 2°45.764 13.9 325 14.4 101760 75
2009-06-19 07:04:44 51°16.32 2°45.744 15.4 304 14.4 101760 75
2009-06-19 07:04:49 51°16.326 2°45.724 14.2 325 14.4 101770 75
2009-06-19 07:04:54 51°16.334 2°45.704 15.1 327 14.4 101770 75
2009-06-19 07:04:59 51°16.341 2°45.684 14.4 326 14.4 101770 76
2009-06-19 07:05:04 51°16.349 2°45.664 16.1 326 14.4 101770 76
2009-06-19 07:05:09 51°16.357 2°45.645 17.4 324 14.4 101750 75
2009-06-19 07:05:14 51°16.365 2°45.626 13.3 327 14.4 101750 75
2009-06-19 07:05:20 51°16.376 2°45.603 15.5 326 14.4 101780 76
2009-06-19 07:05:24 51°16.382 2°45.588 16.2 326 14.4 101780 76
2009-06-19 07:05:29 51°16.391 2°45.569 13.6 327 14.4 101740 75
2009-06-19 07:05:35 51°16.401 2°45.546 15.2 277 14.4 101740 75
2009-06-19 07:05:40 51°16.41 2°45.528 15 325 14.4 101730 74
2009-06-19 07:05:44 51°16.416 2°45.513 13.8 325 14.4 101730 74
2009-06-19 07:05:49 51°16.425 2°45.494 16.5 325 14.4 101760 73
2009-06-19 07:05:55 51°16.435 2°45.471 14.2 303 14.4 101760 73
2009-06-19 07:05:59 51°16.442 2°45.456 12.9 325 14.3 101780 73
2009-06-19 07:06:04 51°16.45 2°45.438 13.9 304 14.3 101780 73
2009-06-19 07:06:10 51°16.46 2°45.415 15.8 325 14.3 101760 72
2009-06-19 07:06:15 51°16.469 2°45.397 15.9 303 14.3 101760 72
2009-06-19 07:06:19 51°16.476 2°45.382 13.5 325 14.3 101740 73
2009-06-19 07:06:24 51°16.485 2°45.363 13.6 325 14.3 101740 73
2009-06-19 07:06:30 51°16.495 2°45.341 14.1 327 14.3 101760 73
2009-06-19 07:06:35 51°16.504 2°45.323 16.3 303 14.3 101760 73
2009-06-19 07:06:40 51°16.512 2°45.306 14.5 327 14.3 101750 72
2009-06-19 07:06:44 51°16.519 2°45.291 13.7 304 14.3 101750 72
2009-06-19 07:06:49 51°16.528 2°45.273 16 327 14.3 101770 73
2009-06-19 07:06:55 51°16.538 2°45.25 15.5 329 14.3 101770 73
2009-06-19 07:07:00 51°16.547 2°45.232 13.2 327 14.3 101780 73
2009-06-19 07:07:04 51°16.554 2°45.216 16 327 14.3 101780 73
2009-06-19 07:07:09 51°16.562 2°45.198 17 326 14.3 101760 73
2009-06-19 07:07:15 51°16.572 2°45.175 13.5 325 14.3 101760 73
2009-06-19 07:07:19 51°16.579 2°45.161 14.1 325 14.3 101750 74
2009-06-19 07:07:24 51°16.588 2°45.143 13.7 326 14.3 101750 74
2009-06-19 07:07:28 51°16.595 2°45.128 13 324 14.3 101770 75
2009-06-19 07:07:34 51°16.605 2°45.106 16.2 325 14.3 101770 75
2009-06-19 07:07:40 51°16.615 2°45.084 14.3 326 14.3 101760 73
2009-06-19 07:07:44 51°16.622 2°45.069 15.6 326 14.3 101760 73
2009-06-19 07:07:49 51°16.63 2°45.051 16.5 326 14.3 101760 73
2009-06-19 07:07:55 51°16.64 2°45.03 13.2 303 14.3 101760 73
2009-06-19 07:07:59 51°16.647 2°45.015 15.4 327 14.3 101760 73
2009-06-19 07:08:04 51°16.655 2°44.997 15.6 302 14.3 101760 73
2009-06-19 07:08:09 51°16.663 2°44.979 16.3 327 14.3 101770 72
2009-06-19 07:08:15 51°16.674 2°44.956 13.4 327 14.3 101770 72
2009-06-19 07:08:19 51°16.68 2°44.941 13.6 327 14.2 101770 72
2009-06-19 07:08:24 51°16.688 2°44.922 16.3 329 14.2 101770 72
2009-06-19 07:08:29 51°16.697 2°44.903 13.4 328 14.2 101750 72
2009-06-19 07:08:35 51°16.707 2°44.881 15.3 304 14.2 101750 72
2009-06-19 07:08:39 51°16.713 2°44.866 15.1 327 14.3 101770 73
2009-06-19 07:08:44 51°16.722 2°44.847 14.8 327 14.3 101770 73
2009-06-19 07:08:49 51°16.73 2°44.828 16.9 327 14.3 101770 74
2009-06-19 07:08:55 51°16.74 2°44.805 15.8 327 14.3 101770 74
2009-06-19 07:09:00 51°16.749 2°44.787 16.1 327 14.3 101770 74
2009-06-19 07:09:04 51°16.756 2°44.772 16.7 328 14.3 101770 74
2009-06-19 07:09:09 51°16.764 2°44.753 14.2 327 14.2 101760 72
2009-06-19 07:09:15 51°16.774 2°44.73 14.3 326 14.2 101760 72
2009-06-19 07:09:19 51°16.781 2°44.715 15.5 328 14.2 101750 72
2009-06-19 07:09:24 51°16.789 2°44.696 15.9 329 14.2 101750 72
2009-06-19 07:09:29 51°16.797 2°44.677 14.8 328 14.2 101760 72
2009-06-19 07:09:35 51°16.807 2°44.653 14.7 283 14.2 101760 72
2009-06-19 07:09:40 51°16.815 2°44.635 15.8 328 14.2 101760 73
2009-06-19 07:09:44 51°16.822 2°44.62 14.4 329 14.2 101760 73
2009-06-19 07:09:49 51°16.831 2°44.602 13.3 328 14.2 101780 73
2009-06-19 07:09:55 51°16.841 2°44.58 15.1 326 14.2 101780 73
2009-06-19 07:10:00 51°16.85 2°44.561 14.6 327 14.3 101780 74
2009-06-19 07:10:04 51°16.857 2°44.547 16.2 329 14.3 101780 74
2009-06-19 07:10:09 51°16.866 2°44.528 16.6 328 14.2 101770 73
2009-06-19 07:10:15 51°16.876 2°44.506 18 327 14.2 101770 73
2009-06-19 07:10:19 51°16.884 2°44.492 14.9 328 14.3 101770 74
2009-06-19 07:10:24 51°16.893 2°44.473 17.8 328 14.3 101770 74
2009-06-19 07:10:29 51°16.902 2°44.455 16.5 328 14.3 101780 73
2009-06-19 07:10:35 51°16.912 2°44.434 13.8 327 14.3 101780 73
2009-06-19 07:10:39 51°16.92 2°44.42 13.6 328 14.2 101750 73
2009-06-19 07:10:44 51°16.929 2°44.402 17.2 327 14.2 101750 73
2009-06-19 07:10:50 51°16.94 2°44.38 14.4 326 14.2 101750 72
2009-06-19 07:10:55 51°16.949 2°44.362 16.3 325 14.2 101750 72
2009-06-19 07:10:59 51°16.956 2°44.347 16.2 327 14.2 101740 72
2009-06-19 07:11:04 51°16.965 2°44.329 13.1 325 14.2 101740 72
2009-06-19 07:11:09 51°16.974 2°44.311 16.6 326 14.2 101750 72
2009-06-19 07:11:15 51°16.985 2°44.289 16.5 328 14.2 101750 72
2009-06-19 07:11:19 51°16.993 2°44.274 15 327 14.2 101750 72
2009-06-19 07:11:24 51°17.002 2°44.256 14.3 327 14.2 101750 72
2009-06-19 07:11:29 51°17.011 2°44.237 17.6 328 14.2 101770 72
2009-06-19 07:11:35 51°17.022 2°44.215 17.2 281 14.2 101770 72
2009-06-19 07:11:40 51°17.031 2°44.196 17.5 327 14.2 101770 73
2009-06-19 07:11:44 51°17.039 2°44.182 16.3 304 14.2 101770 73
2009-06-19 07:11:49 51°17.048 2°44.164 13.3 326 14.2 101770 72
2009-06-19 07:11:55 51°17.059 2°44.143 16.5 304 14.2 101770 72
2009-06-19 07:12:00 51°17.068 2°44.124 13.8 326 14.2 101760 72
2009-06-19 07:12:04 51°17.075 2°44.11 15.4 326 14.2 101760 72
2009-06-19 07:12:09 51°17.084 2°44.092 16.9 327 14.2 101780 71
2009-06-19 07:12:15 51°17.095 2°44.07 15.1 304 14.2 101780 71
2009-06-19 07:12:20 51°17.104 2°44.052 14.5 325 14.2 101790 71
2009-06-19 07:12:24 51°17.112 2°44.038 13.2 326 14.2 101790 71
2009-06-19 07:12:29 51°17.121 2°44.02 13.8 326 14.2 101750 72
2009-06-19 07:12:35 51°17.132 2°43.997 15.4 326 14.2 101750 72
2009-06-19 07:12:39 51°17.14 2°43.983 16.5 324 14.2 101760 72
2009-06-19 07:12:44 51°17.149 2°43.964 12 325 14.2 101760 72
2009-06-19 07:12:48 51°17.156 2°43.949 14.9 327 14.2 101760 72
2009-06-19 07:12:54 51°17.167 2°43.928 16.8 303 14.2 101760 72
2009-06-19 07:12:59 51°17.177 2°43.91 13.6 326 14.2 101750 72
2009-06-19 07:13:04 51°17.186 2°43.892 16.9 328 14.2 101750 72
2009-06-19 07:13:09 51°17.195 2°43.875 13.9 326 14.2 101770 73
2009-06-19 07:13:15 51°17.206 2°43.854 13.4 326 14.2 101770 73
2009-06-19 07:13:19 51°17.213 2°43.839 14.2 328 14.2 101760 72
2009-06-19 07:13:24 51°17.223 2°43.822 14.5 327 14.2 101760 72
2009-06-19 07:13:29 51°17.232 2°43.805 14.9 326 14.2 101750 72
2009-06-19 07:13:35 51°17.243 2°43.784 14.1 326 14.2 101750 72
2009-06-19 07:13:39 51°17.251 2°43.771 14.5 327 14.2 101760 73
2009-06-19 07:13:44 51°17.261 2°43.753 13.7 326 14.2 101760 73
2009-06-19 07:13:49 51°17.27 2°43.736 16 325 14.2 101760 73
2009-06-19 07:13:55 51°17.281 2°43.715 14.1 326 14.2 101760 73
2009-06-19 07:14:00 51°17.291 2°43.697 15.8 328 14.2 101740 72
2009-06-19 07:14:04 51°17.299 2°43.682 13.6 327 14.2 101740 72
2009-06-19 07:14:09 51°17.308 2°43.664 15.7 327 14.2 101770 71
2009-06-19 07:14:15 51°17.319 2°43.643 14.1 327 14.2 101770 71
2009-06-19 07:14:19 51°17.327 2°43.628 12.4 326 14.2 101770 71
2009-06-19 07:14:24 51°17.336 2°43.61 13.3 301 14.2 101770 71
2009-06-19 07:14:28 51°17.343 2°43.596 13.5 327 14.2 101760 70
2009-06-19 07:14:34 51°17.354 2°43.575 15.8 302 14.2 101760 70
2009-06-19 07:14:40 51°17.365 2°43.553 16.5 330 14.2 101760 71
2009-06-19 07:14:44 51°17.373 2°43.539 13.6 327 14.2 101760 71
2009-06-19 07:14:49 51°17.382 2°43.522 13.1 329 14.2 101780 72
2009-06-19 07:14:55 51°17.393 2°43.5 14.9 330 14.2 101780 72
2009-06-19 07:14:59 51°17.4 2°43.486 15.5 328 14.2 101770 73
2009-06-19 07:15:04 51°17.409 2°43.468 14.2 328 14.2 101770 73
2009-06-19 07:15:09 51°17.418 2°43.45 12.7 329 14.2 101780 72
2009-06-19 07:15:15 51°17.429 2°43.429 15.5 329 14.2 101780 72
2009-06-19 07:15:19 51°17.436 2°43.414 12.1 327 14.2 101790 73
2009-06-19 07:15:24 51°17.446 2°43.396 15.9 302 14.2 101790 73
2009-06-19 07:15:29 51°17.455 2°43.379 15.5 328 14.2 101780 72
2009-06-19 07:15:35 51°17.466 2°43.357 13.9 283 14.2 101780 72
2009-06-19 07:15:39 51°17.473 2°43.344 14.7 328 14.2 101780 72
2009-06-19 07:15:44 51°17.482 2°43.326 11.9 327 14.2 101780 72
2009-06-19 07:15:49 51°17.492 2°43.309 12.9 328 14.2 101780 73
2009-06-19 07:15:55 51°17.502 2°43.288 11.6 331 14.2 101780 73
2009-06-19 07:16:00 51°17.511 2°43.27 11.8 329 14.2 101780 73
2009-06-19 07:16:04 51°17.518 2°43.256 13.7 330 14.2 101780 73
2009-06-19 07:16:09 51°17.527 2°43.239 15 329 14.2 101790 72
2009-06-19 07:16:15 51°17.538 2°43.217 12.4 328 14.2 101790 72
2009-06-19 07:16:19 51°17.546 2°43.203 14.7 328 14.2 101780 73
2009-06-19 07:16:24 51°17.555 2°43.185 16.3 327 14.2 101780 73
2009-06-19 07:16:29 51°17.564 2°43.168 13.9 326 14.2 101790 73
2009-06-19 07:16:35 51°17.575 2°43.147 15.5 326 14.2 101790 73
2009-06-19 07:16:40 51°17.584 2°43.129 16.3 326 14.3 101800 73
2009-06-19 07:16:44 51°17.591 2°43.116 13.6 325 14.3 101800 73
2009-06-19 07:16:49 51°17.601 2°43.099 12.7 327 14.3 101780 73
2009-06-19 07:16:55 51°17.612 2°43.08 14 326 14.3 101780 73
2009-06-19 07:17:00 51°17.62 2°43.063 15.6 324 14.2 101780 73
2009-06-19 07:17:04 51°17.627 2°43.051 16.5 302 14.2 101780 73
2009-06-19 07:17:09 51°17.636 2°43.035 13 325 14.2 101780 73
2009-06-19 07:17:15 51°17.647 2°43.015 14.6 303 14.2 101780 73
2009-06-19 07:17:19 51°17.654 2°43.003 16.4 325 14.2 101770 73
2009-06-19 07:17:24 51°17.664 2°42.987 12.8 325 14.2 101770 73
2009-06-19 07:17:29 51°17.673 2°42.97 16.3 326 14.2 101760 74
2009-06-19 07:17:35 51°17.684 2°42.95 16.4 282 14.2 101760 74
2009-06-19 07:17:39 51°17.691 2°42.937 14.4 325 14.2 101770 73
2009-06-19 07:17:44 51°17.701 2°42.92 14.6 323 14.2 101770 73
2009-06-19 07:17:49 51°17.71 2°42.903 13.9 325 14.2 101780 73
2009-06-19 07:17:55 51°17.721 2°42.882 15.1 305 14.2 101780 73
2009-06-19 07:18:00 51°17.731 2°42.865 16.5 323 14.3 101770 74
2009-06-19 07:18:04 51°17.738 2°42.851 17.1 326 14.3 101770 74
2009-06-19 07:18:09 51°17.748 2°42.833 13.5 328 14.3 101760 74
2009-06-19 07:18:15 51°17.76 2°42.812 13.1 304 14.3 101760 74
2009-06-19 07:18:20 51°17.769 2°42.795 13.1 324 14.2 101750 74
2009-06-19 07:18:24 51°17.777 2°42.782 12.9 324 14.2 101750 74
2009-06-19 07:18:29 51°17.786 2°42.764 14.8 324 14.2 101770 74
2009-06-19 07:18:35 51°17.797 2°42.744 18.2 303 14.2 101770 74
2009-06-19 07:18:39 51°17.805 2°42.729 18.1 325 14.3 101790 74
2009-06-19 07:18:44 51°17.814 2°42.711 16 306 14.3 101790 74
2009-06-19 07:18:48 51°17.822 2°42.697 12.8 323 14.3 101780 75
2009-06-19 07:18:54 51°17.833 2°42.676 16.4 307 14.3 101780 75
2009-06-19 07:19:00 51°17.845 2°42.655 15.5 323 14.3 101760 74
2009-06-19 07:19:04 51°17.852 2°42.641 17.3 326 14.3 101760 74
2009-06-19 07:19:09 51°17.861 2°42.623 17.5 324 14.3 101760 74
2009-06-19 07:19:15 51°17.873 2°42.602 14 304 14.3 101760 74
2009-06-19 07:19:20 51°17.882 2°42.584 14 325 14.2 101770 74
2009-06-19 07:19:24 51°17.89 2°42.569 13.4 326 14.2 101770 74
2009-06-19 07:19:30 51°17.901 2°42.548 14 325 14.2 101740 74
2009-06-19 07:19:35 51°17.911 2°42.53 13.7 304 14.2 101740 74
2009-06-19 07:19:39 51°17.918 2°42.516 12.9 325 14.2 101770 73
2009-06-19 07:19:44 51°17.928 2°42.498 13.9 301 14.2 101770 73
2009-06-19 07:19:49 51°17.937 2°42.479 14.8 326 14.2 101770 74
2009-06-19 07:19:55 51°17.948 2°42.457 16.5 327 14.2 101770 74
2009-06-19 07:19:59 51°17.956 2°42.442 13.9 327 14.2 101760 75
2009-06-19 07:20:04 51°17.965 2°42.423 16.8 327 14.2 101760 75
2009-06-19 07:20:10 51°17.976 2°42.4 15.8 328 14.3 101760 75
2009-06-19 07:20:15 51°17.986 2°42.381 12.6 329 14.3 101760 75
2009-06-19 07:20:19 51°17.993 2°42.366 14.2 330 14.2 101780 75
2009-06-19 07:20:24 51°18.003 2°42.348 12 329 14.2 101780 75
2009-06-19 07:20:29 51°18.012 2°42.33 17 328 14.2 101770 74
2009-06-19 07:20:35 51°18.023 2°42.308 12.7 327 14.2 101770 74
2009-06-19 07:20:40 51°18.032 2°42.29 17.4 325 14.2 101760 74
2009-06-19 07:20:44 51°18.039 2°42.276 17.6 328 14.2 101760 74
2009-06-19 07:20:49 51°18.048 2°42.257 12.9 331 14.2 101770 74
2009-06-19 07:20:55 51°18.059 2°42.236 14.7 328 14.2 101770 74
2009-06-19 07:21:00 51°18.068 2°42.218 17.2 329 14.2 101780 74
2009-06-19 07:21:04 51°18.075 2°42.203 13.5 329 14.2 101780 74
2009-06-19 07:21:09 51°18.084 2°42.185 14.6 327 14.2 101760 74
2009-06-19 07:21:15 51°18.095 2°42.162 16.5 327 14.2 101760 74
2009-06-19 07:21:20 51°18.104 2°42.143 14.9 329 14.2 101790 74
2009-06-19 07:21:24 51°18.111 2°42.128 15.4 302 14.2 101790 74
2009-06-19 07:21:29 51°18.12 2°42.11 16.4 327 14.2 101780 73
2009-06-19 07:21:35 51°18.132 2°42.087 14.2 281 14.2 101780 73
2009-06-19 07:21:39 51°18.139 2°42.073 13.7 328 14.2 101770 73
2009-06-19 07:21:44 51°18.149 2°42.054 16 327 14.2 101770 73
2009-06-19 07:21:49 51°18.158 2°42.036 13.2 329 14.2 101770 72
2009-06-19 07:21:55 51°18.169 2°42.013 13.2 329 14.2 101770 72
2009-06-19 07:21:59 51°18.176 2°41.998 13.5 327 14.2 101770 73
2009-06-19 07:22:04 51°18.186 2°41.98 14.5 328 14.2 101770 73
2009-06-19 07:22:09 51°18.195 2°41.962 12.5 329 14.2 101760 72
2009-06-19 07:22:15 51°18.207 2°41.94 13 329 14.2 101760 72
2009-06-19 07:22:19 51°18.214 2°41.925 15 329 14.2 101770 73
2009-06-19 07:22:24 51°18.223 2°41.907 14.4 329 14.2 101770 73
2009-06-19 07:22:29 51°18.232 2°41.889 16.2 328 14.2 101780 74
2009-06-19 07:22:35 51°18.244 2°41.868 14.2 330 14.2 101780 74
2009-06-19 07:22:40 51°18.253 2°41.85 16 329 14.2 101770 74
2009-06-19 07:22:44 51°18.26 2°41.835 14.7 329 14.2 101770 74
2009-06-19 07:22:49 51°18.27 2°41.818 15.5 329 14.2 101790 74
2009-06-19 07:22:55 51°18.28 2°41.796 15.1 330 14.2 101790 74
2009-06-19 07:23:00 51°18.29 2°41.778 15.3 329 14.2 101760 73
2009-06-19 07:23:04 51°18.297 2°41.764 15.7 328 14.2 101760 73
2009-06-19 07:23:09 51°18.306 2°41.745 14 328 14.2 101790 73
2009-06-19 07:23:15 51°18.317 2°41.724 14.1 328 14.2 101790 73
2009-06-19 07:23:20 51°18.326 2°41.707 16.8 327 14.2 101790 73
2009-06-19 07:23:24 51°18.333 2°41.693 15.3 326 14.2 101790 73
2009-06-19 07:23:29 51°18.342 2°41.676 13.8 326 14.2 101790 73
2009-06-19 07:23:35 51°18.353 2°41.654 16.5 281 14.2 101790 73
2009-06-19 07:23:39 51°18.36 2°41.64 13.5 328 14.2 101750 73
2009-06-19 07:23:44 51°18.369 2°41.622 13.1 302 14.2 101750 73
2009-06-19 07:23:49 51°18.378 2°41.604 14.1 329 14.2 101760 74
2009-06-19 07:23:55 51°18.39 2°41.582 15 303 14.2 101760 74
2009-06-19 07:24:00 51°18.399 2°41.565 12.8 326 14.2 101790 74
2009-06-19 07:24:04 51°18.406 2°41.55 12.7 303 14.2 101790 74
2009-06-19 07:24:09 51°18.416 2°41.533 13.9 324 14.2 101770 73
2009-06-19 07:24:15 51°18.427 2°41.513 13.1 303 14.2 101770 73
2009-06-19 07:24:19 51°18.434 2°41.499 15.3 327 14.2 101780 74
2009-06-19 07:24:24 51°18.443 2°41.481 13.8 326 14.2 101780 74
2009-06-19 07:24:29 51°18.453 2°41.463 14.6 325 14.2 101780 74
2009-06-19 07:24:35 51°18.464 2°41.442 13.2 327 14.2 101780 74
2009-06-19 07:24:39 51°18.471 2°41.428 13.8 327 14.2 101770 74
2009-06-19 07:24:44 51°18.48 2°41.41 13.9 328 14.2 101770 74
2009-06-19 07:24:49 51°18.49 2°41.392 12.8 325 14.3 101780 75
2009-06-19 07:24:55 51°18.501 2°41.37 12.6 327 14.3 101780 75
2009-06-19 07:25:00 51°18.51 2°41.353 15 328 14.3 101770 76
2009-06-19 07:25:04 51°18.518 2°41.339 16.5 328 14.3 101770 76
2009-06-19 07:25:09 51°18.527 2°41.321 13.8 327 14.3 101790 77
2009-06-19 07:25:15 51°18.538 2°41.301 13.8 328 14.3 101790 77
2009-06-19 07:25:20 51°18.548 2°41.283 17.3 328 14.3 101790 77
2009-06-19 07:25:24 51°18.555 2°41.269 16.7 328 14.3 101790 77
2009-06-19 07:25:29 51°18.564 2°41.251 16.4 327 14.3 101800 77
2009-06-19 07:25:34 51°18.573 2°41.232 12.7 329 14.3 101800 77
2009-06-19 07:25:40 51°18.584 2°41.211 11.8 329 14.2 101770 75
2009-06-19 07:25:44 51°18.592 2°41.197 13.2 328 14.2 101770 75
2009-06-19 07:25:49 51°18.602 2°41.179 14.1 327 14.2 101780 75
2009-06-19 07:25:55 51°18.613 2°41.157 14.4 328 14.2 101780 75
2009-06-19 07:26:00 51°18.623 2°41.139 13.9 328 14.2 101790 76
2009-06-19 07:26:04 51°18.63 2°41.125 16.4 327 14.2 101790 76
2009-06-19 07:26:09 51°18.639 2°41.107 14 328 14.2 101790 76
2009-06-19 07:26:15 51°18.651 2°41.085 16.6 326 14.2 101790 76
2009-06-19 07:26:20 51°18.66 2°41.067 15.7 325 14.1 101780 72
2009-06-19 07:26:24 51°18.667 2°41.053 16.5 327 14.1 101780 72
2009-06-19 07:26:29 51°18.677 2°41.035 15 327 14.1 101770 71
2009-06-19 07:26:35 51°18.688 2°41.015 15.8 304 14.1 101770 71
2009-06-19 07:26:39 51°18.695 2°41.001 14 326 14.1 101780 71
2009-06-19 07:26:44 51°18.704 2°40.983 14.2 305 14.1 101780 71
2009-06-19 07:26:49 51°18.714 2°40.966 15.8 325 14.1 101800 72
2009-06-19 07:26:55 51°18.725 2°40.945 16 304 14.1 101800 72
2009-06-19 07:26:59 51°18.732 2°40.931 14.7 327 14.1 101770 72
2009-06-19 07:27:04 51°18.742 2°40.913 16.4 326 14.1 101770 72
2009-06-19 07:27:10 51°18.753 2°40.892 17.4 325 14.1 101770 72
2009-06-19 07:27:15 51°18.762 2°40.874 16.4 324 14.1 101770 72
2009-06-19 07:27:19 51°18.77 2°40.86 16.9 325 14.1 101780 72
2009-06-19 07:27:24 51°18.78 2°40.842 15.1 327 14.1 101780 72
2009-06-19 07:27:28 51°18.787 2°40.829 13.1 326 14.1 101770 73
2009-06-19 07:27:35 51°18.801 2°40.805 13 282 14.1 101770 73
2009-06-19 07:27:40 51°18.81 2°40.787 13.2 327 14.1 101760 72
2009-06-19 07:27:44 51°18.818 2°40.773 14.1 328 14.1 101760 72
2009-06-19 07:27:49 51°18.828 2°40.755 14.4 327 14.1 101770 72
2009-06-19 07:27:55 51°18.839 2°40.734 16.4 327 14.1 101770 72
2009-06-19 07:27:59 51°18.847 2°40.72 12.1 330 14.1 101780 74
2009-06-19 07:28:04 51°18.857 2°40.702 13.1 331 14.1 101780 74
2009-06-19 07:28:08 51°18.864 2°40.688 12.6 331 14.1 101790 73
2009-06-19 07:28:14 51°18.875 2°40.667 15.3 328 14.1 101790 73
2009-06-19 07:28:20 51°18.887 2°40.645 14.3 326 14.1 101800 74
2009-06-19 07:28:24 51°18.894 2°40.631 12.8 305 14.1 101800 74
2009-06-19 07:28:29 51°18.903 2°40.613 14.9 325 14.1 101790 74
2009-06-19 07:28:35 51°18.915 2°40.592 13.9 324 14.1 101790 74
2009-06-19 07:28:40 51°18.924 2°40.574 17 325 14.2 101810 75
2009-06-19 07:28:44 51°18.933 2°40.56 15.5 305 14.2 101810 75
2009-06-19 07:28:49 51°18.942 2°40.543 15.8 325 14.2 101780 75
2009-06-19 07:28:55 51°18.954 2°40.523 15.9 304 14.2 101780 75
2009-06-19 07:28:59 51°18.962 2°40.51 14.5 326 14.2 101780 75
2009-06-19 07:29:04 51°18.972 2°40.493 12.8 326 14.2 101780 75
2009-06-19 07:29:10 51°18.983 2°40.472 15 326 14.1 101780 74
2009-06-19 07:29:15 51°18.993 2°40.455 14.5 302 14.1 101780 74
2009-06-19 07:29:19 51°19 2°40.441 16.7 326 14.1 101780 74
2009-06-19 07:29:24 51°19.01 2°40.424 18 325 14.1 101780 74
2009-06-19 07:29:30 51°19.021 2°40.402 14.3 325 14.2 101760 74
2009-06-19 07:29:35 51°19.031 2°40.385 18.6 279 14.2 101760 74
2009-06-19 07:29:39 51°19.039 2°40.371 18 325 14.2 101790 75
2009-06-19 07:29:44 51°19.049 2°40.354 13.9 302 14.2 101790 75
2009-06-19 07:29:48 51°19.056 2°40.339 18 325 14.1 101780 75
2009-06-19 07:29:55 51°19.069 2°40.314 14.6 326 14.1 101780 75
2009-06-19 07:30:00 51°19.079 2°40.296 14.6 324 14.1 101770 74
2009-06-19 07:30:04 51°19.087 2°40.282 14 326 14.1 101770 74
2009-06-19 07:30:09 51°19.096 2°40.264 15.4 326 14.1 101770 74
2009-06-19 07:30:15 51°19.108 2°40.243 14.2 325 14.1 101770 74
2009-06-19 07:30:20 51°19.117 2°40.225 13.7 325 14.1 101780 73
2009-06-19 07:30:24 51°19.125 2°40.211 17 302 14.1 101780 73
2009-06-19 07:30:29 51°19.134 2°40.193 18.1 324 14.1 101760 72
2009-06-19 07:30:34 51°19.144 2°40.176 14.3 304 14.1 101760 72
2009-06-19 07:30:40 51°19.155 2°40.154 16.7 324 14.1 101780 71
2009-06-19 07:30:44 51°19.163 2°40.14 15.7 324 14.1 101780 71
2009-06-19 07:30:49 51°19.173 2°40.122 16.3 325 14.1 101780 71
2009-06-19 07:30:55 51°19.184 2°40.101 14.1 325 14.1 101780 71
2009-06-19 07:30:59 51°19.192 2°40.087 14.5 325 14.1 101770 72
2009-06-19 07:31:04 51°19.202 2°40.068 18.6 302 14.1 101770 72
2009-06-19 07:31:08 51°19.209 2°40.054 16 326 14.1 101780 74
2009-06-19 07:31:14 51°19.221 2°40.032 14.4 303 14.1 101780 74
2009-06-19 07:31:19 51°19.23 2°40.015 14.4 326 14.1 101790 74
2009-06-19 07:31:24 51°19.24 2°39.996 16.3 326 14.1 101790 74
2009-06-19 07:31:30 51°19.251 2°39.975 16.3 324 14.1 101750 73
2009-06-19 07:31:35 51°19.261 2°39.957 16.9 283 14.1 101750 73
2009-06-19 07:31:39 51°19.269 2°39.942 16.8 324 14.1 101760 73
2009-06-19 07:31:44 51°19.278 2°39.924 17.5 326 14.1 101760 73
2009-06-19 07:31:49 51°19.287 2°39.906 15.6 326 14.1 101780 73
2009-06-19 07:31:55 51°19.299 2°39.884 13.7 304 14.1 101780 73
2009-06-19 07:31:59 51°19.307 2°39.87 17.1 326 14.1 101780 73
2009-06-19 07:32:04 51°19.317 2°39.852 13.9 303 14.1 101780 73
2009-06-19 07:32:08 51°19.324 2°39.837 14.4 325 14.1 101760 72
2009-06-19 07:32:15 51°19.338 2°39.812 17.2 325 14.1 101760 72
2009-06-19 07:32:19 51°19.345 2°39.797 13.8 325 14.1 101780 74
2009-06-19 07:32:24 51°19.355 2°39.779 13.3 327 14.1 101780 74
2009-06-19 07:32:29 51°19.365 2°39.761 13.1 327 14.2 101800 75
2009-06-19 07:32:35 51°19.376 2°39.738 17.2 327 14.2 101800 75
2009-06-19 07:32:40 51°19.386 2°39.72 16.7 327 14.1 101770 73
2009-06-19 07:32:44 51°19.393 2°39.705 14.4 327 14.1 101770 73
2009-06-19 07:32:49 51°19.403 2°39.687 14.8 327 14.1 101780 73
2009-06-19 07:32:54 51°19.413 2°39.669 17 304 14.1 101780 73
2009-06-19 07:33:00 51°19.424 2°39.647 13.3 325 14.1 101800 75
2009-06-19 07:33:04 51°19.432 2°39.633 13.1 325 14.1 101800 75
2009-06-19 07:33:10 51°19.443 2°39.611 13.8 326 14.1 101790 74
2009-06-19 07:33:15 51°19.453 2°39.593 14.9 325 14.1 101790 74
2009-06-19 07:33:19 51°19.461 2°39.579 14.5 328 14.1 101780 75
2009-06-19 07:33:24 51°19.471 2°39.561 17.9 328 14.1 101780 75
2009-06-19 07:33:29 51°19.48 2°39.542 17.9 330 14.1 101790 75
2009-06-19 07:33:35 51°19.492 2°39.52 15.7 284 14.1 101790 75
2009-06-19 07:33:39 51°19.5 2°39.506 17.8 328 14.1 101790 75
2009-06-19 07:33:45 51°19.511 2°39.483 15.2 328 14.1 101790 75
2009-06-19 07:33:49 51°19.519 2°39.469 15.2 328 14.1 101780 75
2009-06-19 07:33:55 51°19.53 2°39.447 17.5 328 14.1 101780 75
2009-06-19 07:34:00 51°19.54 2°39.429 14.4 328 14.1 101790 75
2009-06-19 07:34:04 51°19.548 2°39.414 13.9 330 14.1 101790 75
2009-06-19 07:34:09 51°19.557 2°39.396 17.9 329 14.1 101790 74
2009-06-19 07:34:15 51°19.568 2°39.374 16.3 329 14.1 101790 74
2009-06-19 07:34:20 51°19.578 2°39.356 17.7 328 14.1 101770 75
2009-06-19 07:34:24 51°19.586 2°39.342 16.5 327 14.1 101770 75
2009-06-19 07:34:29 51°19.595 2°39.323 15.1 329 14.1 101800 74
2009-06-19 07:34:35 51°19.607 2°39.301 14.9 327 14.1 101800 74
2009-06-19 07:34:40 51°19.616 2°39.282 15.9 328 14.1 101800 74
2009-06-19 07:34:44 51°19.624 2°39.267 17.2 326 14.1 101800 74
2009-06-19 07:34:49 51°19.633 2°39.249 17.3 329 14.1 101780 74
2009-06-19 07:34:55 51°19.645 2°39.226 13.6 304 14.1 101780 74
2009-06-19 07:34:59 51°19.652 2°39.212 12.9 326 14.1 101790 74
2009-06-19 07:35:04 51°19.662 2°39.195 15.2 304 14.1 101790 74
2009-06-19 07:35:09 51°19.671 2°39.177 15 327 14.1 101800 75
2009-06-19 07:35:15 51°19.682 2°39.155 13.7 305 14.1 101800 75
2009-06-19 07:35:20 51°19.692 2°39.137 17.5 324 14.1 101800 74
2009-06-19 07:35:24 51°19.699 2°39.123 15.1 326 14.1 101800 74
2009-06-19 07:35:29 51°19.708 2°39.105 13.4 326 14.1 101790 75
2009-06-19 07:35:35 51°19.72 2°39.083 15.1 285 14.1 101790 75
2009-06-19 07:35:39 51°19.727 2°39.068 16 327 14.1 101790 75
2009-06-19 07:35:45 51°19.739 2°39.045 13.6 328 14.1 101790 75
2009-06-19 07:35:49 51°19.746 2°39.031 17.1 329 14.1 101790 75
2009-06-19 07:35:55 51°19.757 2°39.009 17.5 329 14.1 101790 75
2009-06-19 07:36:00 51°19.767 2°38.991 14.2 330 14.1 101780 75
2009-06-19 07:36:04 51°19.775 2°38.976 13.6 330 14.1 101780 75
2009-06-19 07:36:09 51°19.784 2°38.957 15.3 331 14.1 101790 75
2009-06-19 07:36:15 51°19.795 2°38.935 17.2 331 14.1 101790 75
2009-06-19 07:36:19 51°19.803 2°38.92 14.4 331 14.1 101810 74
2009-06-19 07:36:24 51°19.812 2°38.902 16.3 330 14.1 101810 74
2009-06-19 07:36:30 51°19.824 2°38.88 16.6 330 14.1 101800 74
2009-06-19 07:36:35 51°19.833 2°38.862 18 281 14.1 101800 74
2009-06-19 07:36:40 51°19.843 2°38.844 14.7 331 14.1 101800 74
2009-06-19 07:36:44 51°19.851 2°38.831 14.2 330 14.1 101800 74
2009-06-19 07:36:49 51°19.86 2°38.813 16.7 331 14.2 101800 75
2009-06-19 07:36:55 51°19.872 2°38.791 13.8 329 14.2 101800 75
2009-06-19 07:37:00 51°19.882 2°38.773 14.3 328 14.1 101810 75
2009-06-19 07:37:04 51°19.89 2°38.758 14.2 332 14.1 101810 75
2009-06-19 07:37:09 51°19.899 2°38.741 17.7 333 14.1 101790 74
2009-06-19 07:37:15 51°19.911 2°38.718 16.3 329 14.1 101790 74
2009-06-19 07:37:19 51°19.919 2°38.704 16.1 330 14.1 101800 74
2009-06-19 07:37:24 51°19.928 2°38.685 16.9 331 14.1 101800 74
2009-06-19 07:37:28 51°19.936 2°38.67 14.9 331 14.1 101810 74
2009-06-19 07:37:35 51°19.95 2°38.645 15 331 14.1 101810 74
2009-06-19 07:37:40 51°19.959 2°38.626 14.1 332 14.1 101800 74
2009-06-19 07:37:44 51°19.967 2°38.612 14.2 330 14.1 101800 74
2009-06-19 07:37:49 51°19.976 2°38.593 15.1 331 14.1 101800 74
2009-06-19 07:37:55 51°19.987 2°38.571 16.5 330 14.1 101800 74
2009-06-19 07:37:59 51°19.995 2°38.556 13.3 330 14.1 101800 73
2009-06-19 07:38:04 51°20.004 2°38.539 13.6 332 14.1 101800 73
2009-06-19 07:38:09 51°20.013 2°38.521 17.1 331 14.1 101810 73
2009-06-19 07:38:15 51°20.025 2°38.5 16.6 330 14.1 101810 73
2009-06-19 07:38:19 51°20.031 2°38.485 14.9 330 14.1 101810 73
2009-06-19 07:38:24 51°20.041 2°38.467 17.4 331 14.1 101810 73
2009-06-19 07:38:29 51°20.05 2°38.449 18 330 14.1 101800 74
2009-06-19 07:38:35 51°20.061 2°38.427 17.7 282 14.1 101800 74
2009-06-19 07:38:40 51°20.07 2°38.409 14.1 329 14.1 101800 74
2009-06-19 07:38:44 51°20.078 2°38.394 14.5 328 14.1 101800 74
2009-06-19 07:38:49 51°20.087 2°38.377 16 329 14.1 101790 74
2009-06-19 07:38:55 51°20.098 2°38.355 19 329 14.1 101790 74
2009-06-19 07:39:00 51°20.108 2°38.338 16 328 14.1 101790 73
2009-06-19 07:39:04 51°20.115 2°38.324 13.5 330 14.1 101790 73
2009-06-19 07:39:09 51°20.124 2°38.306 18.1 328 14.1 101810 73
2009-06-19 07:39:15 51°20.135 2°38.286 15 329 14.1 101810 73
2009-06-19 07:39:19 51°20.143 2°38.272 14 329 14.1 101770 73
2009-06-19 07:39:24 51°20.151 2°38.253 18 330 14.1 101770 73
2009-06-19 07:39:29 51°20.161 2°38.236 13.5 326 14.1 101780 73
2009-06-19 07:39:35 51°20.172 2°38.214 16 329 14.1 101780 73
2009-06-19 07:39:40 51°20.181 2°38.197 15.7 326 14 101790 74
2009-06-19 07:39:44 51°20.188 2°38.182 12.9 328 14 101790 74
2009-06-19 07:39:49 51°20.197 2°38.164 18.2 330 14 101790 72
2009-06-19 07:39:55 51°20.209 2°38.142 16.4 329 14 101790 72
2009-06-19 07:40:00 51°20.218 2°38.124 14.5 329 14.1 101810 73
2009-06-19 07:40:05 51°20.227 2°38.106 14.4 329 14.1 101810 73
2009-06-19 07:40:09 51°20.234 2°38.092 13.9 329 14.1 101800 75
2009-06-19 07:40:15 51°20.246 2°38.07 13.4 329 14.1 101800 75
2009-06-19 07:40:20 51°20.255 2°38.051 14.6 328 14.1 101800 74
2009-06-19 07:40:24 51°20.262 2°38.037 13.3 330 14.1 101800 74
2009-06-19 07:40:29 51°20.271 2°38.019 15.9 331 14 101790 73
2009-06-19 07:40:35 51°20.283 2°37.998 16.7 283 14 101790 73
2009-06-19 07:40:39 51°20.29 2°37.984 14 332 14 101800 72
2009-06-19 07:40:44 51°20.299 2°37.966 14.2 330 14 101800 72
2009-06-19 07:40:50 51°20.31 2°37.944 13.9 328 14.1 101810 73
2009-06-19 07:40:55 51°20.32 2°37.926 13.7 328 14.1 101810 73
2009-06-19 07:40:59 51°20.327 2°37.912 16.3 327 14.1 101810 75
2009-06-19 07:41:04 51°20.337 2°37.894 13.6 329 14.1 101810 75
2009-06-19 07:41:09 51°20.346 2°37.877 13.2 332 14.1 101820 74
2009-06-19 07:41:15 51°20.357 2°37.856 18.1 329 14.1 101820 74
2009-06-19 07:41:20 51°20.366 2°37.839 15.2 330 14.1 101800 75
2009-06-19 07:41:24 51°20.374 2°37.826 16.7 330 14.1 101800 75
2009-06-19 07:41:30 51°20.385 2°37.806 15.9 329 14.1 101790 75
2009-06-19 07:41:35 51°20.394 2°37.789 17.7 330 14.1 101790 75
2009-06-19 07:41:40 51°20.404 2°37.771 15.6 330 14.1 101800 76
2009-06-19 07:41:44 51°20.411 2°37.757 14.4 329 14.1 101800 76
2009-06-19 07:41:49 51°20.42 2°37.74 15.2 332 14.1 101790 74
2009-06-19 07:41:55 51°20.431 2°37.72 15.8 328 14.1 101790 74
2009-06-19 07:41:59 51°20.438 2°37.705 15.9 330 14 101800 73
2009-06-19 07:42:04 51°20.447 2°37.688 13.9 328 14 101800 73
2009-06-19 07:42:09 51°20.457 2°37.67 16.7 329 14 101810 72
2009-06-19 07:42:15 51°20.468 2°37.648 13.4 329 14 101810 72
2009-06-19 07:42:19 51°20.475 2°37.634 16.8 328 14 101810 74
2009-06-19 07:42:25 51°20.486 2°37.613 16.4 331 14 101810 74